Time;durP1;ratioP1;P1;durP2;ratioP2;P2;SDS_P1;SDS_P2;PMS_P1;PMS_P2;Temp;Humidity;BMP_temperature;BMP_pressure;BME280_temperature;BME280_humidity;BME280_pressure;Samples;Min_cycle;Max_cycle;Signal;HPM_P1;HPM_P2
2021/04/04 00:01:28;;;;;;;0.40;0.30;;;;;;;0.46;72.24;101864.91;5055635;28;20493;-77
2021/04/04 00:03:54;;;;;;;0.40;0.30;;;;;;;0.42;72.68;101866.31;5056463;28;20442;-76
2021/04/04 00:06:20;;;;;;;0.40;0.40;;;;;;;0.54;72.46;101875.38;5056347;28;20511;-76
2021/04/04 00:08:47;;;;;;;1.60;1.50;;;;;;;0.59;72.17;101864.94;5055857;28;20940;-77
2021/04/04 00:11:13;;;;;;;2.03;1.67;;;;;;;0.56;72.86;101868.00;5055855;28;20457;-76
2021/04/04 00:13:41;;;;;;;0.40;0.40;;;;;;;0.60;72.32;101863.06;5056168;28;20449;-76
2021/04/04 00:16:07;;;;;;;1.23;0.60;;;;;;;0.65;70.62;101866.78;5056199;28;20523;-76
2021/04/04 00:18:33;;;;;;;0.60;0.60;;;;;;;0.52;69.94;101858.75;5054646;28;20500;-77
2021/04/04 00:21:00;;;;;;;0.47;0.40;;;;;;;0.35;71.64;101854.81;5055387;28;20504;-77
2021/04/04 00:23:26;;;;;;;0.87;0.83;;;;;;;0.37;71.52;101858.13;5056036;28;20482;-76
2021/04/04 00:25:52;;;;;;;0.40;0.40;;;;;;;0.47;72.12;101864.69;5055247;28;20469;-76
2021/04/04 00:28:18;;;;;;;0.40;0.30;;;;;;;0.43;71.98;101862.63;5055727;28;20928;-76
2021/04/04 00:30:45;;;;;;;0.90;0.87;;;;;;;0.33;72.34;101859.53;5056132;28;20446;-76
2021/04/04 00:33:11;;;;;;;0.50;0.50;;;;;;;0.25;72.37;101861.34;5056061;28;20441;-76
2021/04/04 00:35:38;;;;;;;0.93;0.70;;;;;;;0.15;72.19;101854.78;5055803;28;20820;-76
2021/04/04 00:38:04;;;;;;;0.40;0.30;;;;;;;0.13;72.58;101854.16;5055038;28;20445;-76
2021/04/04 00:40:33;;;;;;;0.40;0.40;;;;;;;0.21;71.77;101849.47;5055670;28;20482;-76
2021/04/04 00:42:59;;;;;;;0.60;0.50;;;;;;;0.20;72.30;101850.50;5055845;28;20439;-76
2021/04/04 00:45:28;;;;;;;0.50;0.50;;;;;;;0.18;73.53;101843.72;5054835;28;20533;-77
2021/04/04 00:47:55;;;;;;;13.87;1.27;;;;;;;0.27;73.60;101847.00;5055553;28;20450;-76
2021/04/04 00:50:24;;;;;;;0.50;0.50;;;;;;;0.28;73.52;101841.50;5055609;28;20450;-76
2021/04/04 00:52:51;;;;;;;0.73;0.60;;;;;;;0.27;72.16;101841.69;5055569;28;20446;-76
2021/04/04 00:55:17;;;;;;;0.50;0.40;;;;;;;0.28;71.76;101848.69;5054172;28;20474;-77
2021/04/04 00:57:43;;;;;;;0.50;0.50;;;;;;;0.20;72.27;101847.81;5055464;28;20444;-76
2021/04/04 01:00:12;;;;;;;1.50;1.03;;;;;;;0.12;72.77;101847.19;5055008;28;20899;-77
2021/04/04 01:02:40;;;;;;;0.60;0.50;;;;;;;0.08;71.93;101848.59;5055486;28;20833;-77
2021/04/04 01:05:09;;;;;;;0.50;0.40;;;;;;;-0.16;72.35;101852.63;5055709;28;20485;-77
2021/04/04 01:07:35;;;;;;;0.40;0.40;;;;;;;-0.20;72.98;101851.38;5053306;28;20449;-77
2021/04/04 01:10:03;;;;;;;0.40;0.40;;;;;;;-0.19;73.23;101853.81;5055395;28;20584;-77
2021/04/04 01:12:38;;;;;;;0.40;0.30;;;;;;;-0.15;73.72;101851.59;5055219;28;20453;-78
2021/04/04 01:15:07;;;;;;;12.93;1.58;;;;;;;-0.20;73.27;101854.03;5055206;28;20231;-77
2021/04/04 01:17:35;;;;;;;0.40;0.40;;;;;;;-0.24;73.52;101858.94;5054485;28;20208;-77
2021/04/04 01:20:14;;;;;;;1.90;0.93;;;;;;;-0.29;74.58;101862.19;5055094;28;20560;-77
2021/04/04 01:23:11;;;;;;;2.40;1.03;;;;;;;-0.26;73.72;101859.13;5055189;28;20462;-77
2021/04/04 01:25:45;;;;;;;0.83;0.83;;;;;;;-0.32;74.10;101854.59;5054117;28;20474;-76
2021/04/04 01:28:15;;;;;;;0.70;0.60;;;;;;;-0.28;73.75;101855.84;5055069;28;20763;-77
2021/04/04 01:30:44;;;;;;;2.10;2.00;;;;;;;-0.24;73.70;101855.44;5055130;28;20435;-77
2021/04/04 01:33:12;;;;;;;0.60;0.53;;;;;;;-0.30;73.34;101855.22;5055022;28;20446;-77
2021/04/04 01:35:42;;;;;;;0.40;0.30;;;;;;;-0.39;75.43;101852.94;5054763;28;20489;-77
2021/04/04 01:38:12;;;;;;;0.40;0.30;;;;;;;-0.22;75.23;101859.56;5054126;28;20501;-77
2021/04/04 01:40:40;;;;;;;21.90;1.48;;;;;;;-0.28;76.06;101855.00;5054823;28;20529;-77
2021/04/04 01:43:07;;;;;;;3.60;0.93;;;;;;;-0.20;75.60;101848.72;5054711;28;20208;-77
2021/04/04 01:45:34;;;;;;;0.50;0.50;;;;;;;-0.27;75.95;101846.00;5053582;28;20462;-77
2021/04/04 01:48:01;;;;;;;0.93;0.93;;;;;;;-0.15;75.72;101854.25;5053963;28;20443;-77
2021/04/04 01:50:28;;;;;;;0.50;0.40;;;;;;;-0.12;74.88;101853.88;5054436;28;20446;-76
2021/04/04 01:52:56;;;;;;;0.40;0.30;;;;;;;0.00;74.11;101852.28;5054283;28;20450;-77
2021/04/04 01:55:23;;;;;;;0.40;0.40;;;;;;;-0.03;74.46;101853.50;5053536;28;20481;-77
2021/04/04 01:57:51;;;;;;;0.52;0.50;;;;;;;-0.15;75.46;101846.28;5054267;28;20450;-76
2021/04/04 02:00:21;;;;;;;3.47;2.10;;;;;;;-0.17;76.28;101848.31;5053886;28;20704;-77
2021/04/04 02:02:49;;;;;;;0.40;0.40;;;;;;;-0.22;76.11;101848.91;5054466;28;20438;-77
2021/04/04 02:05:16;;;;;;;0.40;0.30;;;;;;;-0.12;75.99;101838.72;5054087;28;20462;-77
2021/04/04 02:07:45;;;;;;;0.50;0.50;;;;;;;-0.13;74.80;101834.41;5053704;28;20438;-77
2021/04/04 02:10:12;;;;;;;10.03;2.10;;;;;;;-0.20;73.23;101828.22;5053937;28;20661;-77
2021/04/04 02:12:39;;;;;;;0.63;0.60;;;;;;;-0.24;73.29;101829.66;5054231;28;20453;-77
2021/04/04 02:15:07;;;;;;;1.10;1.10;;;;;;;-0.37;74.29;101824.25;5053496;28;20834;-77
2021/04/04 02:17:35;;;;;;;1.77;1.63;;;;;;;-0.49;74.72;101826.66;5054150;28;20446;-77
2021/04/04 02:20:04;;;;;;;1.23;0.70;;;;;;;-0.58;75.40;101828.66;5053601;28;20482;-77
2021/04/04 02:22:31;;;;;;;0.60;0.50;;;;;;;-0.63;74.90;101820.44;5054320;28;20446;-77
2021/04/04 02:24:57;;;;;;;0.40;0.33;;;;;;;-0.60;75.34;101819.25;5054038;28;20477;-77
2021/04/04 02:27:23;;;;;;;0.60;0.60;;;;;;;-0.58;74.81;101817.19;5053546;28;20449;-77
2021/04/04 02:29:49;;;;;;;0.50;0.50;;;;;;;-0.61;75.13;101814.94;5053813;28;20278;-77
2021/04/04 02:32:17;;;;;;;0.85;0.85;;;;;;;-0.62;75.08;101799.97;5054080;28;20817;-78
2021/04/04 02:34:46;;;;;;;0.90;0.70;;;;;;;-0.67;75.54;101802.41;5053502;28;20716;-77
2021/04/04 02:37:15;;;;;;;0.50;0.50;;;;;;;-0.58;75.03;101807.38;5053233;28;20443;-77
2021/04/04 02:39:47;;;;;;;1.37;0.70;;;;;;;-0.62;74.94;101797.31;5053714;28;20442;-77
2021/04/04 02:42:18;;;;;;;0.80;0.70;;;;;;;-0.72;74.61;101800.34;5054309;28;20489;-77
2021/04/04 02:44:46;;;;;;;0.47;0.43;;;;;;;-0.74;75.50;101796.25;5054153;28;20672;-77
2021/04/04 02:47:14;;;;;;;1.00;1.00;;;;;;;-0.78;75.53;101793.97;5053519;28;20434;-77
2021/04/04 02:49:45;;;;;;;0.70;0.70;;;;;;;-0.80;75.68;101798.69;5053870;28;20447;-78
2021/04/04 02:52:16;;;;;;;2.43;2.10;;;;;;;-0.76;75.19;101796.41;5054050;28;20449;-77
2021/04/04 02:54:43;;;;;;;0.40;0.40;;;;;;;-0.86;75.82;101795.97;5053595;28;20481;-78
2021/04/04 02:57:11;;;;;;;1.13;0.85;;;;;;;-0.88;75.73;101796.16;5053006;28;20429;-78
2021/04/04 02:59:43;;;;;;;2.20;1.20;;;;;;;-0.83;75.96;101785.75;5054270;28;20207;-78
2021/04/04 03:02:13;;;;;;;1.30;1.17;;;;;;;-0.88;76.01;101785.53;5053829;28;20908;-78
2021/04/04 03:04:40;;;;;;;1.73;1.37;;;;;;;-0.81;76.80;101778.38;5052945;28;20459;-77
2021/04/04 03:07:07;;;;;;;1.20;1.10;;;;;;;-0.81;77.48;101782.91;5053835;28;20446;-78
2021/04/04 03:09:35;;;;;;;0.60;0.60;;;;;;;-0.77;77.52;101787.63;5054188;28;20453;-78
2021/04/04 03:12:02;;;;;;;2.80;2.03;;;;;;;-0.74;77.60;101781.09;5054454;28;20208;-78
2021/04/04 03:14:29;;;;;;;2.08;1.98;;;;;;;-0.77;77.93;101784.16;5053720;28;20204;-78
2021/04/04 03:16:56;;;;;;;1.10;0.57;;;;;;;-0.67;77.50;101789.09;5052987;28;20204;-78
2021/04/04 03:19:24;;;;;;;0.60;0.60;;;;;;;-0.72;78.21;101784.38;5054090;28;20442;-78
2021/04/04 03:21:51;;;;;;;0.45;0.45;;;;;;;-0.70;78.10;101784.19;5056106;28;20558;-78
2021/04/04 03:24:17;;;;;;;0.93;0.80;;;;;;;-0.59;77.86;101783.63;5065097;28;20257;-78
2021/04/04 03:26:46;;;;;;;5.30;1.70;;;;;;;-0.52;77.27;101784.50;5062456;28;20813;-78
2021/04/04 03:29:12;;;;;;;0.60;0.60;;;;;;;-0.62;75.83;101778.69;5061058;28;20560;-78
2021/04/04 03:31:40;;;;;;;1.53;0.77;;;;;;;-0.75;76.98;101774.16;5055717;28;20449;-78
2021/04/04 03:34:06;;;;;;;0.40;0.40;;;;;;;-0.78;76.17;101770.03;5058037;28;20483;-78
2021/04/04 03:36:32;;;;;;;3.70;3.10;;;;;;;-0.91;76.91;101777.94;5056869;28;20830;-79
2021/04/04 03:38:59;;;;;;;1.23;1.23;;;;;;;-0.91;76.67;101764.63;5057781;28;20446;-78
2021/04/04 03:41:27;;;;;;;2.58;1.10;;;;;;;-0.88;76.16;101764.25;5057891;28;20488;-78
2021/04/04 03:43:55;;;;;;;0.50;0.40;;;;;;;-0.87;76.38;101765.06;5057038;28;20215;-78
2021/04/04 03:46:24;;;;;;;1.87;1.77;;;;;;;-1.03;76.12;101759.03;5056453;28;20488;-78
2021/04/04 03:48:52;;;;;;;1.38;0.63;;;;;;;-0.99;76.70;101766.63;5057412;28;20461;-78
2021/04/04 03:51:22;;;;;;;0.68;0.68;;;;;;;-1.08;77.11;101757.97;5057173;28;20208;-78
2021/04/04 03:53:50;;;;;;;0.63;0.63;;;;;;;-1.05;76.60;101746.97;5057635;28;20550;-77
2021/04/04 03:56:20;;;;;;;0.97;0.80;;;;;;;-1.00;76.16;101752.50;5056033;28;20469;-78
2021/04/04 03:58:48;;;;;;;5.80;4.10;;;;;;;-1.15;76.57;101759.75;5056721;28;20419;-77
2021/04/04 04:01:18;;;;;;;0.40;0.40;;;;;;;-1.15;77.28;101754.44;5056854;28;20485;-78
2021/04/04 04:03:46;;;;;;;0.40;0.40;;;;;;;-1.18;77.34;101750.34;5056828;28;20788;-78
2021/04/04 04:06:13;;;;;;;6.23;1.20;;;;;;;-1.23;77.61;101746.66;5055964;28;20512;-78
2021/04/04 04:08:41;;;;;;;1.17;0.93;;;;;;;-1.16;77.55;101745.66;5056899;28;20453;-78
2021/04/04 04:11:08;;;;;;;0.63;0.60;;;;;;;-0.99;76.54;101745.34;5056787;28;20203;-78
2021/04/04 04:13:36;;;;;;;0.50;0.50;;;;;;;-1.11;77.17;101743.22;5056731;28;20480;-78
2021/04/04 04:16:03;;;;;;;0.80;0.80;;;;;;;-1.14;77.62;101740.97;5056062;28;20888;-78
2021/04/04 04:18:30;;;;;;;0.70;0.67;;;;;;;-1.23;78.06;101738.69;5056219;28;20429;-78
2021/04/04 04:20:56;;;;;;;1.42;1.33;;;;;;;-1.12;77.03;101735.47;5056475;28;20485;-78
2021/04/04 04:23:24;;;;;;;1.05;1.05;;;;;;;-1.17;77.81;101736.03;5056544;28;20204;-78
2021/04/04 04:25:52;;;;;;;0.87;0.87;;;;;;;-1.06;77.55;101737.34;5056116;28;20220;-80
2021/04/04 04:28:20;;;;;;;0.60;0.60;;;;;;;-1.05;78.13;101739.81;5055862;28;20446;-78
2021/04/04 04:30:46;;;;;;;0.82;0.75;;;;;;;-1.05;78.80;101731.00;5056243;28;20573;-77
2021/04/04 04:33:16;;;;;;;2.00;1.47;;;;;;;-1.14;79.64;101742.81;5056310;28;20200;-78
2021/04/04 04:35:44;;;;;;;0.60;0.60;;;;;;;-1.16;80.47;101740.34;5057877;28;20462;-77
2021/04/04 04:38:11;;;;;;;1.45;0.60;;;;;;;-1.13;80.20;101734.66;5055642;28;20245;-77
2021/04/04 04:40:38;;;;;;;0.50;0.50;;;;;;;-1.13;81.02;101741.81;5055977;28;20216;-78
2021/04/04 04:43:08;;;;;;;0.80;0.80;;;;;;;-1.08;80.48;101737.53;5055030;28;20454;-78
2021/04/04 04:45:37;;;;;;;1.80;1.70;;;;;;;-0.99;79.89;101743.50;5055289;28;20223;-78
2021/04/04 04:48:05;;;;;;;0.55;0.55;;;;;;;-1.07;80.48;101733.03;5056169;28;20533;-78
2021/04/04 04:50:31;;;;;;;0.80;0.80;;;;;;;-1.07;80.53;101733.84;5055959;28;20196;-78
2021/04/04 04:52:59;;;;;;;0.80;0.80;;;;;;;-0.99;80.84;101730.22;5056396;28;20214;-78
2021/04/04 04:55:26;;;;;;;0.50;0.50;;;;;;;-0.96;79.76;101727.19;5068703;22;20558;-70
2021/04/04 04:57:53;;;;;;;0.40;0.30;;;;;;;-1.01;79.18;101732.28;5094926;28;20237;-71
2021/04/04 05:00:23;;;;;;;0.85;0.85;;;;;;;-1.03;78.09;101735.09;5094724;28;20479;-68
2021/04/04 05:02:49;;;;;;;1.43;1.33;;;;;;;-1.11;78.94;101731.78;5095911;28;20649;-67
2021/04/04 05:05:16;;;;;;;0.50;0.50;;;;;;;-1.18;79.03;101737.06;5096564;28;20445;-67
2021/04/04 05:07:44;;;;;;;0.40;0.37;;;;;;;-1.07;78.67;101733.84;5099024;28;20683;-64
2021/04/04 05:10:13;;;;;;;0.60;0.40;;;;;;;-1.28;78.81;101737.41;5099966;28;20436;-66
2021/04/04 05:12:45;;;;;;;0.40;0.30;;;;;;;-1.22;79.28;101737.66;5095167;28;20264;-69
2021/04/04 05:15:12;;;;;;;0.40;0.30;;;;;;;-1.31;79.84;101735.13;5096812;28;20656;-67
2021/04/04 05:17:38;;;;;;;0.63;0.63;;;;;;;-1.23;79.78;101728.88;5096033;28;20203;-66
2021/04/04 05:20:07;;;;;;;0.40;0.30;;;;;;;-1.11;79.71;101732.59;5096024;28;20226;-67
2021/04/04 05:22:33;;;;;;;1.13;0.93;;;;;;;-1.08;79.76;101731.41;5095221;28;20230;-66
2021/04/04 05:25:00;;;;;;;0.40;0.40;;;;;;;-0.97;79.33;101732.66;5094546;28;20440;-67
2021/04/04 05:27:27;;;;;;;0.40;0.30;;;;;;;-0.98;79.34;101729.19;5095692;28;20440;-66
2021/04/04 05:29:58;;;;;;;0.50;0.50;;;;;;;-0.82;79.29;101726.22;5095514;28;20934;-67
2021/04/04 05:32:24;;;;;;;0.55;0.52;;;;;;;-0.80;79.18;101726.88;5095710;28;20513;-66
2021/04/04 05:34:50;;;;;;;1.50;1.40;;;;;;;-0.81;79.72;101733.19;5095461;28;20202;-66
2021/04/04 05:37:16;;;;;;;0.40;0.40;;;;;;;-0.74;78.83;101732.41;5094418;28;20199;-66
2021/04/04 05:39:42;;;;;;;0.43;0.40;;;;;;;-0.59;78.00;101725.09;5094825;28;20453;-66
2021/04/04 05:42:09;;;;;;;1.07;1.00;;;;;;;-0.52;78.59;101728.59;5093337;28;20542;-66
2021/04/04 05:44:41;;;;;;;0.40;0.40;;;;;;;-0.51;79.71;101719.59;5093397;28;20444;-67
2021/04/04 05:47:15;;;;;;;1.02;1.02;;;;;;;-0.35;80.67;101721.09;5094322;28;20433;-66
2021/04/04 05:49:51;;;;;;;0.50;0.50;;;;;;;-0.29;81.37;101723.75;5094445;28;20182;-67
2021/04/04 05:52:30;;;;;;;3.60;1.13;;;;;;;-0.18;79.48;101726.84;5094195;28;20464;-67
2021/04/04 05:55:06;;;;;;;0.50;0.50;;;;;;;-0.16;79.67;101715.00;5092997;28;20465;-68
2021/04/04 05:57:40;;;;;;;0.70;0.70;;;;;;;0.08;78.32;101712.75;5094741;28;20486;-66
2021/04/04 06:00:10;;;;;;;2.67;2.47;;;;;;;0.22;78.28;101723.25;5094079;28;20487;-67
2021/04/04 06:02:55;;;;;;;0.52;0.40;;;;;;;0.34;80.58;101720.78;5094054;28;20260;-66
2021/04/04 06:05:38;;;;;;;3.43;3.23;;;;;;;0.48;79.52;101718.91;5094186;28;20186;-66
2021/04/04 06:08:39;;;;;;;0.60;0.50;;;;;;;0.68;80.08;101716.25;5093089;28;20429;-66
2021/04/04 06:11:11;;;;;;;0.50;0.40;;;;;;;0.88;80.84;101726.88;5092206;28;20452;-66
2021/04/04 06:13:51;;;;;;;0.50;0.50;;;;;;;1.11;80.70;101724.56;5093510;28;20985;-66
2021/04/04 06:16:27;;;;;;;0.40;0.33;;;;;;;1.31;80.88;101718.34;5093251;28;20468;-68
2021/04/04 06:19:05;;;;;;;0.73;0.73;;;;;;;1.50;80.60;101717.41;5093817;28;20424;-67
2021/04/04 06:21:38;;;;;;;2.33;1.67;;;;;;;1.63;79.56;101709.34;5093689;28;20460;-67
2021/04/04 06:24:11;;;;;;;0.70;0.60;;;;;;;1.83;79.53;101719.13;5093745;28;20420;-67
2021/04/04 06:26:41;;;;;;;0.60;0.40;;;;;;;2.03;78.93;101719.78;5092843;28;20463;-67
2021/04/04 06:29:12;;;;;;;0.40;0.40;;;;;;;2.18;78.48;101719.50;5093663;28;20436;-68
2021/04/04 06:31:50;;;;;;;0.50;0.50;;;;;;;2.35;77.99;101719.78;5093521;28;20424;-67
2021/04/04 06:34:33;;;;;;;1.53;0.67;;;;;;;2.49;77.05;101718.63;5092883;28;20424;-68
2021/04/04 06:37:14;;;;;;;0.50;0.40;;;;;;;2.62;76.26;101712.34;5093337;28;20915;-67
2021/04/04 06:39:57;;;;;;;0.40;0.30;;;;;;;2.80;75.71;101716.91;5093921;28;20424;-67
2021/04/04 06:42:36;;;;;;;0.83;0.80;;;;;;;2.93;74.96;101725.63;5093388;28;20460;-67
2021/04/04 06:45:10;;;;;;;0.60;0.50;;;;;;;3.02;74.74;101720.78;5092884;28;20434;-68
2021/04/04 06:47:53;;;;;;;1.23;1.13;;;;;;;3.10;74.51;101719.66;5093332;28;20434;-67
2021/04/04 06:50:22;;;;;;;0.40;0.30;;;;;;;3.24;73.45;101716.63;5093090;28;20424;-68
2021/04/04 06:53:02;;;;;;;0.90;0.70;;;;;;;3.34;73.37;101721.44;5092699;28;20506;-65
2021/04/04 06:55:43;;;;;;;0.40;0.40;;;;;;;3.40;73.14;101715.19;5092979;28;20964;-65
2021/04/04 06:58:33;;;;;;;3.03;0.97;;;;;;;3.53;73.56;101714.19;5093002;28;20436;-65
2021/04/04 07:01:10;;;;;;;0.97;0.50;;;;;;;3.65;72.28;101717.75;5093181;28;20515;-65
2021/04/04 07:03:46;;;;;;;3.90;0.67;;;;;;;3.75;72.64;101723.38;5092485;28;20488;-66
2021/04/04 07:06:42;;;;;;;1.23;0.90;;;;;;;3.93;72.63;101719.00;5096362;28;20430;-66
2021/04/04 07:09:30;;;;;;;0.67;0.50;;;;;;;4.07;70.83;101725.78;5097120;28;20843;-67
2021/04/04 07:12:08;;;;;;;0.70;0.70;;;;;;;4.21;70.13;101740.66;5097205;28;20456;-67
2021/04/04 07:14:53;;;;;;;0.40;0.40;;;;;;;4.25;69.60;101738.31;5090220;28;20440;-67
2021/04/04 07:17:34;;;;;;;1.00;0.47;;;;;;;4.36;68.64;101731.34;5077182;28;20421;-67
2021/04/04 07:20:17;;;;;;;0.83;0.83;;;;;;;4.42;68.68;101733.09;5076773;28;20441;-66
2021/04/04 07:23:16;;;;;;;2.00;1.60;;;;;;;4.51;68.01;101729.03;5076774;28;20556;-67
2021/04/04 07:25:46;;;;;;;0.40;0.30;;;;;;;4.57;67.93;101732.66;5076019;28;20995;-66
2021/04/04 07:28:29;;;;;;;0.40;0.30;;;;;;;4.67;67.12;101730.22;5076157;28;20444;-66
2021/04/04 07:30:57;;;;;;;0.50;0.43;;;;;;;4.78;67.29;101730.22;5076924;28;20426;-68
2021/04/04 07:33:33;;;;;;;0.40;0.30;;;;;;;4.84;66.58;101725.78;5076737;28;20472;-67
2021/04/04 07:36:10;;;;;;;0.50;0.40;;;;;;;4.93;66.16;101719.00;5076747;28;20447;-66
2021/04/04 07:38:45;;;;;;;0.40;0.33;;;;;;;5.04;65.82;101720.84;5076379;28;20430;-64
2021/04/04 07:41:17;;;;;;;0.40;0.30;;;;;;;5.08;65.45;101721.19;5076636;28;20465;-67
2021/04/04 07:43:54;;;;;;;0.50;0.30;;;;;;;5.21;66.07;101704.81;5076779;28;20457;-67
2021/04/04 07:46:23;;;;;;;0.40;0.30;;;;;;;5.28;65.77;101715.44;5075391;28;20460;-65
2021/04/04 07:49:09;;;;;;;6.77;1.80;;;;;;;5.38;67.30;101707.56;5076525;28;20476;-66
2021/04/04 07:51:40;;;;;;;0.60;0.60;;;;;;;5.55;67.44;101694.19;5076351;28;20421;-66
2021/04/04 07:54:11;;;;;;;0.50;0.47;;;;;;;5.66;67.83;101687.13;5075698;28;20429;-68
2021/04/04 07:56:41;;;;;;;1.27;1.17;;;;;;;5.74;69.73;101702.88;5076178;28;20461;-65
2021/04/04 07:59:15;;;;;;;0.83;0.40;;;;;;;5.80;70.01;101688.50;5076384;28;20433;-66
2021/04/04 08:01:44;;;;;;;2.00;1.23;;;;;;;5.89;70.33;101691.56;5076375;28;20469;-66
2021/04/04 08:04:17;;;;;;;0.40;0.33;;;;;;;5.97;71.89;101700.09;5097698;28;20444;-66
2021/04/04 08:06:48;;;;;;;0.40;0.30;;;;;;;6.09;72.34;101704.59;5075882;28;20458;-63
2021/04/04 08:09:25;;;;;;;0.50;0.50;;;;;;;6.17;72.69;101691.56;5075956;28;20795;-67
2021/04/04 08:11:57;;;;;;;0.50;0.40;;;;;;;6.22;72.98;101686.25;5075001;28;20452;-66
2021/04/04 08:14:31;;;;;;;0.67;0.50;;;;;;;6.30;72.89;101674.28;5075873;28;20426;-67
2021/04/04 08:16:59;;;;;;;0.70;0.70;;;;;;;6.34;73.33;101671.94;5075311;28;20533;-66
2021/04/04 08:19:25;;;;;;;2.23;2.13;;;;;;;6.40;72.45;101668.25;5074958;28;20441;-67
2021/04/04 08:21:59;;;;;;;0.40;0.30;;;;;;;6.46;72.30;101672.63;5075519;28;20872;-65
2021/04/04 08:24:30;;;;;;;0.60;0.40;;;;;;;6.50;72.53;101668.38;5075980;28;20422;-66
2021/04/04 08:27:01;;;;;;;0.60;0.50;;;;;;;6.62;72.23;101662.91;5075829;28;20413;-66
2021/04/04 08:29:32;;;;;;;0.53;0.47;;;;;;;6.68;71.75;101662.72;5075015;28;20433;-66
2021/04/04 08:32:01;;;;;;;1.23;1.13;;;;;;;6.72;72.04;101661.16;5075614;28;20453;-66
2021/04/04 08:34:33;;;;;;;0.50;0.40;;;;;;;6.79;71.99;101661.81;5075685;28;20442;-66
2021/04/04 08:37:06;;;;;;;2.60;0.67;;;;;;;6.92;71.75;101654.44;5075772;28;20830;-66
2021/04/04 08:39:34;;;;;;;0.80;0.63;;;;;;;7.05;70.99;101657.56;5074550;28;20842;-67
2021/04/04 08:42:03;;;;;;;0.50;0.50;;;;;;;7.14;71.33;101657.13;5075140;28;20493;-66
2021/04/04 08:44:34;;;;;;;2.10;1.27;;;;;;;7.23;70.33;101656.44;5075645;28;20437;-66
2021/04/04 08:47:09;;;;;;;0.40;0.30;;;;;;;7.31;69.64;101663.25;5074492;28;20433;-66
2021/04/04 08:49:36;;;;;;;0.50;0.43;;;;;;;7.33;70.03;101664.63;5075309;28;20585;-66
2021/04/04 08:52:06;;;;;;;0.50;0.40;;;;;;;7.37;69.70;101664.13;5075179;28;20461;-65
2021/04/04 08:54:34;;;;;;;0.40;0.30;;;;;;;7.53;69.47;101660.53;5075190;28;20430;-67
2021/04/04 08:57:01;;;;;;;0.50;0.50;;;;;;;7.65;68.26;101665.75;5074934;28;20460;-66
2021/04/04 08:59:31;;;;;;;3.67;0.70;;;;;;;7.72;67.64;101661.78;5074715;28;20438;-66
2021/04/04 09:02:00;;;;;;;0.47;0.47;;;;;;;7.83;67.65;101655.44;5074876;28;20625;-67
2021/04/04 09:04:27;;;;;;;0.47;0.37;;;;;;;7.93;67.56;101659.28;5074289;28;20955;-67
2021/04/04 09:07:02;;;;;;;0.40;0.20;;;;;;;7.93;66.58;101654.72;5074476;28;20472;-66
2021/04/04 09:09:33;;;;;;;0.67;0.67;;;;;;;7.97;67.58;101652.28;5074812;28;20435;-66
2021/04/04 09:12:00;;;;;;;0.77;0.50;;;;;;;7.98;67.36;101651.25;5074699;28;20461;-64
2021/04/04 09:14:33;;;;;;;1.70;0.60;;;;;;;7.98;67.61;101653.94;5073598;28;20533;-66
2021/04/04 09:17:00;;;;;;;2.93;1.50;;;;;;;8.08;66.52;101654.00;5065147;28;20931;-66
2021/04/04 09:19:28;;;;;;;0.90;0.60;;;;;;;8.19;66.38;101653.03;5063241;28;20438;-65
2021/04/04 09:21:55;;;;;;;0.60;0.40;;;;;;;8.17;65.22;101654.34;5066943;28;20481;-66
2021/04/04 09:24:21;;;;;;;0.50;0.40;;;;;;;8.13;66.17;101655.94;5054241;28;20442;-66
2021/04/04 09:26:48;;;;;;;0.60;0.60;;;;;;;8.16;66.20;101647.34;5053949;28;20489;-66
2021/04/04 09:29:15;;;;;;;0.60;0.40;;;;;;;8.18;65.47;101646.00;5052661;28;20451;-66
2021/04/04 09:31:41;;;;;;;0.70;0.40;;;;;;;8.17;66.48;101644.38;5057609;28;20430;-66
2021/04/04 09:34:10;;;;;;;0.57;0.57;;;;;;;8.18;66.96;101642.47;5064002;28;20528;-66
2021/04/04 09:36:40;;;;;;;0.40;0.30;;;;;;;8.29;66.51;101636.09;5065220;28;20443;-67
2021/04/04 09:39:08;;;;;;;2.70;0.80;;;;;;;8.31;65.96;101634.75;5062442;28;20446;-67
2021/04/04 09:41:36;;;;;;;1.00;0.47;;;;;;;8.41;65.70;101638.63;5054220;28;20489;-65
2021/04/04 09:44:04;;;;;;;1.03;0.73;;;;;;;8.52;66.29;101638.44;5053310;28;20438;-66
2021/04/04 09:46:30;;;;;;;0.90;0.60;;;;;;;8.63;65.74;101631.19;5054120;28;20442;-67
2021/04/04 09:48:56;;;;;;;0.67;0.60;;;;;;;8.71;64.37;101636.09;5054109;28;20442;-67
2021/04/04 09:51:23;;;;;;;0.63;0.47;;;;;;;8.80;62.88;101648.03;5064731;28;20452;-64
2021/04/04 09:53:51;;;;;;;1.00;0.67;;;;;;;8.83;63.58;101639.41;5094006;28;20448;-67
2021/04/04 09:56:18;;;;;;;0.60;0.40;;;;;;;8.87;64.16;101634.28;5093761;28;20976;-67
2021/04/04 09:58:47;;;;;;;0.50;0.50;;;;;;;8.99;64.21;101634.88;5094126;28;20432;-66
2021/04/04 10:01:19;;;;;;;0.50;0.40;;;;;;;9.14;63.76;101631.41;5093450;28;20487;-68
2021/04/04 10:03:59;;;;;;;1.37;0.60;;;;;;;9.35;63.51;101633.09;5093663;28;20832;-67
2021/04/04 10:06:26;;;;;;;4.43;0.97;;;;;;;9.39;62.15;101622.56;5094052;28;20503;-66
2021/04/04 10:08:53;;;;;;;0.57;0.50;;;;;;;9.47;61.77;101624.72;5093048;28;20440;-67
2021/04/04 10:11:20;;;;;;;0.70;0.70;;;;;;;9.66;61.21;101627.75;5093729;28;20525;-64
2021/04/04 10:13:46;;;;;;;0.50;0.40;;;;;;;9.78;61.00;101614.78;5093721;28;20510;-66
2021/04/04 10:16:21;;;;;;;0.40;0.30;;;;;;;9.82;60.13;101621.25;5093762;28;20445;-68
2021/04/04 10:19:01;;;;;;;0.50;0.40;;;;;;;9.79;61.26;101616.41;5093021;28;20447;-68
2021/04/04 10:21:27;;;;;;;1.17;0.80;;;;;;;9.96;60.70;101613.44;5093707;28;20483;-68
2021/04/04 10:23:53;;;;;;;0.60;0.57;;;;;;;10.25;60.36;101607.47;5093601;28;20513;-68
2021/04/04 10:26:21;;;;;;;1.67;1.30;;;;;;;10.48;59.54;101612.28;5093617;28;20452;-68
2021/04/04 10:28:51;;;;;;;1.80;0.50;;;;;;;10.51;56.40;101594.69;5093242;28;20441;-67
2021/04/04 10:31:20;;;;;;;0.50;0.30;;;;;;;10.28;56.93;101599.59;5093346;28;20470;-67
2021/04/04 10:33:56;;;;;;;0.80;0.67;;;;;;;10.21;57.52;101600.94;5093579;28;20514;-66
2021/04/04 10:36:23;;;;;;;1.73;1.63;;;;;;;10.28;57.21;101599.59;5093614;28;20431;-64
2021/04/04 10:38:49;;;;;;;0.77;0.77;;;;;;;10.22;56.87;101600.66;5092856;28;20448;-65
2021/04/04 10:41:25;;;;;;;0.47;0.37;;;;;;;9.93;57.71;101594.22;5092566;28;20484;-64
2021/04/04 10:43:51;;;;;;;1.43;0.60;;;;;;;9.69;57.90;101596.63;5092149;28;20472;-65
2021/04/04 10:46:17;;;;;;;0.70;0.57;;;;;;;9.70;58.14;101582.84;5092997;28;20444;-67
2021/04/04 10:48:47;;;;;;;0.70;0.60;;;;;;;9.75;58.92;101582.03;5092696;28;20953;-64
2021/04/04 10:51:15;;;;;;;0.50;0.37;;;;;;;9.90;57.85;101578.50;5092766;28;20436;-66
2021/04/04 10:53:42;;;;;;;0.50;0.40;;;;;;;10.08;57.60;101576.03;5092668;28;21004;-67
2021/04/04 10:56:09;;;;;;;0.60;0.50;;;;;;;10.13;57.44;101566.28;5093190;28;20456;-68
2021/04/04 10:58:37;;;;;;;0.50;0.40;;;;;;;10.14;57.22;101573.31;5093067;28;20444;-67
2021/04/04 11:01:05;;;;;;;0.70;0.50;;;;;;;10.39;57.64;101564.38;5092420;28;21097;-69
2021/04/04 11:03:32;;;;;;;0.50;0.40;;;;;;;10.71;55.60;101567.50;5092864;28;20977;-67
2021/04/04 11:06:00;;;;;;;1.80;0.30;;;;;;;10.90;55.79;101572.31;5093290;28;20452;-68
2021/04/04 11:08:26;;;;;;;0.70;0.60;;;;;;;10.70;54.83;101571.31;5093295;28;20452;-68
2021/04/04 11:10:53;;;;;;;0.60;0.60;;;;;;;10.62;55.62;101566.44;5093271;28;20433;-68
2021/04/04 11:13:20;;;;;;;0.70;0.70;;;;;;;10.49;56.03;101561.63;5091822;28;20981;-68
2021/04/04 11:15:51;;;;;;;0.50;0.43;;;;;;;10.64;55.92;101558.88;5092914;28;20451;-68
2021/04/04 11:18:24;;;;;;;0.40;0.40;;;;;;;10.67;55.54;101549.34;5093121;28;20429;-67
2021/04/04 11:20:54;;;;;;;0.50;0.40;;;;;;;10.58;55.68;101560.78;5093139;28;20843;-67
2021/04/04 11:23:22;;;;;;;3.67;0.90;;;;;;;10.69;56.50;101550.72;5092186;28;20926;-68
2021/04/04 11:25:48;;;;;;;0.90;0.70;;;;;;;11.55;53.89;101543.13;5093070;28;20440;-68
2021/04/04 11:28:19;;;;;;;0.60;0.50;;;;;;;11.71;52.29;101538.38;5092843;28;20444;-69
2021/04/04 11:30:46;;;;;;;1.17;0.70;;;;;;;11.60;53.78;101537.69;5092305;28;20437;-67
2021/04/04 11:33:23;;;;;;;0.60;0.60;;;;;;;11.99;52.26;101529.44;5092844;28;20464;-68
2021/04/04 11:36:10;;;;;;;0.50;0.50;;;;;;;11.61;52.38;101537.38;5092979;28;20447;-68
2021/04/04 11:38:39;;;;;;;2.83;0.73;;;;;;;11.07;53.90;101527.47;5093025;28;20429;-68
2021/04/04 11:41:24;;;;;;;0.87;0.70;;;;;;;11.34;54.05;101518.88;5092653;28;20472;-69
2021/04/04 11:43:51;;;;;;;0.40;0.40;;;;;;;12.49;52.02;101513.69;5093104;28;20456;-68